Terminal Aerodrome Forecast
Issued by NWS

Current Version | Previous Version | Text Only | Print | Product List | Glossary On
Versions: 1 2 3 4 5 6 7 8 9 10 11 12 13 14
000
FTUS42 TJSJ 061700 RRA
TAFJBQ
TAF
TJBQ 061740Z 0618/0718 08020G27KT P6SM VCSH FEW025 SCT040
     FM062300 10009KT P6SM SCT025
     FM071400 08018G25KT P6SM FEW025
      AMD NOT SKED 0702/0711=

USA.gov is the U.S. government's official web portal to all federal, state and local government web resources and services.